Babi Dol, Poland

8:43 PM CEST on April 27, 2017 (GMT +0200)
Michał Gostomski | | Change Station

Elev 0 ft 54.29 °N, 18.23 °E | Updated 9 seconds ago

Rain
Rain
40.3 °F
Feels Like 40 °F
N
0.0
Wind Variable Wind from SE
Gusts 0.0 mph

Today
High -- | Low -- °F
--% Chance of Precip.
Yesterday
High -- | Low -- °F
Precip. -- in
Pressure 29.98 in
Visibility 6.2 miles
Clouds Few 300 ft
Scattered Clouds 1800 ft
Windchill 40 °F
Dew Point 37 °F
Humidity 87%
Rainfall 0.17 in
Snow Depth Not available.
5:17 AM 8:12 PM
New Moon, 2% visible
METAR EPGD 271830Z VRB02KT 9999 FEW003 SCT018CB 05/03 Q1015
Pressure 29.98 in
Visibility 6.2 miles
Clouds Few 300 ft
Scattered Clouds 1800 ft
Windchill 40 °F
Dew Point 37 °F
Humidity 87%
Rainfall 0.17 in
Snow Depth Not available.
5:17 AM 8:12 PM
New Moon, 2% visible
METAR EPGD 271830Z VRB02KT 9999 FEW003 SCT018CB 05/03 Q1015

Get Severe Weather Alerts

Thanks for signing up!

Be on the lookout for a verification email in your inbox.

You'll start receiving the daily forecast at 8 AM.

×

10-Day Weather Forecast

×

Almanac

Astronomy

Apr. 27, 2017 Rise Set
Actual Time
Civil Twilight
Nautical Twilight
Astronomical Twilight
Moon
Length of Visible Light
Length of Day
Tomorrow will be .
, % of the Moon is Illuminated

Today's Extremes

Country Highs Country Lows

Community

WunderPhotos

WunderBlog® & News

Nearby

Air Quality

  Air Quality AQ Index Pollutant
Not available.

Snow Depth

Station Depth Elevation

Earthquake Activity

City Distance Mag. Time & Date
Minimum magnitude displayed is 2.5.

Coastal Water Temperatures

Place Temperature

Stations

Nearby Weather Stations

Station Location Temp. Windchill Dew Point Humidity Wind Precip. Elev Updated Type